sensor_id;sensor_type;location;lat;lon;timestamp;pressure;altitude;pressure_sealevel;temperature;humidity
61961;BME280;47923;42.506;24.192;2023-03-22T00:00:28;95109.53;;;8.26;97.45
61961;BME280;47923;42.506;24.192;2023-03-22T00:02:55;95114.13;;;8.26;96.98
61961;BME280;47923;42.506;24.192;2023-03-22T00:05:21;95087.94;;;8.07;97.31
61961;BME280;47923;42.506;24.192;2023-03-22T00:07:46;95033.00;;;7.73;97.29
61961;BME280;47923;42.506;24.192;2023-03-22T00:10:18;95044.34;;;7.82;97.18
61961;BME280;47923;42.506;24.192;2023-03-22T00:12:44;95103.88;;;8.31;97.04
61961;BME280;47923;42.506;24.192;2023-03-22T00:15:10;95117.69;;;8.30;97.07
61961;BME280;47923;42.506;24.192;2023-03-22T00:17:36;95131.91;;;8.30;96.41
61961;BME280;47923;42.506;24.192;2023-03-22T00:20:03;95117.69;;;8.30;96.64
61961;BME280;47923;42.506;24.192;2023-03-22T00:22:31;95112.63;;;8.28;96.90
61961;BME280;47923;42.506;24.192;2023-03-22T00:24:57;95092.22;;;8.08;96.56
61961;BME280;47923;42.506;24.192;2023-03-22T00:27:22;95120.69;;;8.28;96.55
61961;BME280;47923;42.506;24.192;2023-03-22T00:29:50;95042.69;;;7.78;96.70
61961;BME280;47923;42.506;24.192;2023-03-22T00:32:15;95121.84;;;8.27;97.24
61961;BME280;47923;42.506;24.192;2023-03-22T00:34:40;95115.78;;;8.30;97.88
61961;BME280;47923;42.506;24.192;2023-03-22T00:37:06;94925.94;;;7.08;98.02
61961;BME280;47923;42.506;24.192;2023-03-22T00:39:32;95053.28;;;7.86;97.68
61961;BME280;47923;42.506;24.192;2023-03-22T00:41:57;95112.31;;;8.30;97.74
61961;BME280;47923;42.506;24.192;2023-03-22T00:44:23;95119.56;;;8.29;97.56
61961;BME280;47923;42.506;24.192;2023-03-22T00:46:48;94950.88;;;7.25;97.71
61961;BME280;47923;42.506;24.192;2023-03-22T00:49:14;94983.69;;;7.34;97.72
61961;BME280;47923;42.506;24.192;2023-03-22T00:51:39;95109.88;;;8.25;98.59
61961;BME280;47923;42.506;24.192;2023-03-22T00:54:05;95049.53;;;7.91;98.72
61961;BME280;47923;42.506;24.192;2023-03-22T00:56:30;95086.84;;;8.08;98.79
61961;BME280;47923;42.506;24.192;2023-03-22T00:58:58;94963.63;;;7.28;99.10
61961;BME280;47923;42.506;24.192;2023-03-22T01:01:23;95109.09;;;8.24;99.34
61961;BME280;47923;42.506;24.192;2023-03-22T01:03:49;94988.72;;;7.51;99.13
61961;BME280;47923;42.506;24.192;2023-03-22T01:06:15;94943.22;;;7.27;99.17
61961;BME280;47923;42.506;24.192;2023-03-22T01:08:41;95099.09;;;8.25;99.06
61961;BME280;47923;42.506;24.192;2023-03-22T01:11:07;95108.16;;;8.17;99.48
61961;BME280;47923;42.506;24.192;2023-03-22T01:13:34;95103.00;;;8.27;99.27
61961;BME280;47923;42.506;24.192;2023-03-22T01:16:02;95109.16;;;8.28;98.86
61961;BME280;47923;42.506;24.192;2023-03-22T01:18:28;95096.06;;;8.26;98.76
61961;BME280;47923;42.506;24.192;2023-03-22T01:20:53;95079.09;;;8.07;98.22
61961;BME280;47923;42.506;24.192;2023-03-22T01:23:19;94764.50;;;6.12;97.35
61961;BME280;47923;42.506;24.192;2023-03-22T01:25:44;95058.69;;;8.06;97.12
61961;BME280;47923;42.506;24.192;2023-03-22T01:28:10;95094.94;;;8.27;95.09
61961;BME280;47923;42.506;24.192;2023-03-22T01:30:38;94517.00;;;4.50;94.63
61961;BME280;47923;42.506;24.192;2023-03-22T01:33:04;95100.72;;;8.29;95.21
61961;BME280;47923;42.506;24.192;2023-03-22T01:35:32;95093.47;;;8.30;94.72
61961;BME280;47923;42.506;24.192;2023-03-22T01:37:57;95089.28;;;8.32;95.71
61961;BME280;47923;42.506;24.192;2023-03-22T01:40:23;95095.88;;;8.35;96.61
61961;BME280;47923;42.506;24.192;2023-03-22T01:42:48;95090.16;;;8.37;97.35
61961;BME280;47923;42.506;24.192;2023-03-22T01:47:55;95021.44;;;7.88;97.92
61961;BME280;47923;42.506;24.192;2023-03-22T01:50:22;95008.69;;;7.85;97.74
61961;BME280;47923;42.506;24.192;2023-03-22T01:52:49;94865.75;;;6.93;97.04
61961;BME280;47923;42.506;24.192;2023-03-22T01:55:16;95108.03;;;8.45;97.30
61961;BME280;47923;42.506;24.192;2023-03-22T01:57:43;95089.59;;;8.47;97.16
61961;BME280;47923;42.506;24.192;2023-03-22T02:00:11;94939.91;;;7.49;96.62
61961;BME280;47923;42.506;24.192;2023-03-22T02:02:44;95091.53;;;8.46;97.90
61961;BME280;47923;42.506;24.192;2023-03-22T02:05:11;95086.50;;;8.45;98.22
61961;BME280;47923;42.506;24.192;2023-03-22T02:07:38;94930.84;;;7.38;97.91
61961;BME280;47923;42.506;24.192;2023-03-22T02:10:19;95099.25;;;8.48;98.03
61961;BME280;47923;42.506;24.192;2023-03-22T02:15:44;95023.38;;;8.07;98.49
61961;BME280;47923;42.506;24.192;2023-03-22T02:29:06;95081.97;;;8.33;99.38
61961;BME280;47923;42.506;24.192;2023-03-22T02:42:43;95116.59;;;8.50;98.40
61961;BME280;47923;42.506;24.192;2023-03-22T02:45:25;95112.75;;;8.51;98.22
61961;BME280;47923;42.506;24.192;2023-03-22T02:53:09;94938.22;;;7.25;98.56
61961;BME280;47923;42.506;24.192;2023-03-22T02:55:50;95114.28;;;8.33;98.64
61961;BME280;47923;42.506;24.192;2023-03-22T02:58:27;95122.69;;;8.47;98.45
61961;BME280;47923;42.506;24.192;2023-03-22T03:00:58;95103.41;;;8.29;98.54
61961;BME280;47923;42.506;24.192;2023-03-22T03:03:26;95123.47;;;8.48;98.49
61961;BME280;47923;42.506;24.192;2023-03-22T03:06:07;95131.19;;;8.49;98.01
61961;BME280;47923;42.506;24.192;2023-03-22T03:08:36;94896.84;;;6.95;97.98
61961;BME280;47923;42.506;24.192;2023-03-22T03:11:03;95126.16;;;8.48;98.52
61961;BME280;47923;42.506;24.192;2023-03-22T03:13:29;95008.06;;;7.57;98.59
61961;BME280;47923;42.506;24.192;2023-03-22T03:15:56;95124.50;;;8.43;99.11
61961;BME280;47923;42.506;24.192;2023-03-22T03:21:28;95110.91;;;8.20;99.11
61961;BME280;47923;42.506;24.192;2023-03-22T03:29:16;95097.81;;;8.19;99.01
61961;BME280;47923;42.506;24.192;2023-03-22T03:34:20;95123.66;;;8.39;99.33
61961;BME280;47923;42.506;24.192;2023-03-22T03:36:54;95128.28;;;8.39;99.26
61961;BME280;47923;42.506;24.192;2023-03-22T03:39:21;95082.13;;;8.05;98.89
61961;BME280;47923;42.506;24.192;2023-03-22T03:41:50;95133.31;;;8.40;99.37
61961;BME280;47923;42.506;24.192;2023-03-22T03:44:17;95095.47;;;8.17;99.36
61961;BME280;47923;42.506;24.192;2023-03-22T03:46:44;94816.31;;;6.31;98.52
61961;BME280;47923;42.506;24.192;2023-03-22T03:49:11;95130.44;;;8.33;99.21
61961;BME280;47923;42.506;24.192;2023-03-22T03:51:50;95050.28;;;7.72;98.97
61961;BME280;47923;42.506;24.192;2023-03-22T03:54:16;95095.53;;;7.86;99.45
61961;BME280;47923;42.506;24.192;2023-03-22T03:56:41;95067.34;;;7.80;98.99
61961;BME280;47923;42.506;24.192;2023-03-22T03:59:07;95041.53;;;7.59;99.61
61961;BME280;47923;42.506;24.192;2023-03-22T04:01:33;95137.41;;;8.18;99.27
61961;BME280;47923;42.506;24.192;2023-03-22T04:04:00;95132.03;;;8.18;99.90
61961;BME280;47923;42.506;24.192;2023-03-22T04:06:25;95135.50;;;8.19;99.56
61961;BME280;47923;42.506;24.192;2023-03-22T04:08:51;95136.28;;;8.19;99.59
61961;BME280;47923;42.506;24.192;2023-03-22T04:11:18;94959.66;;;7.06;99.51
61961;BME280;47923;42.506;24.192;2023-03-22T04:13:44;94963.53;;;7.08;99.52
61961;BME280;47923;42.506;24.192;2023-03-22T04:16:10;94941.88;;;6.85;98.92
61961;BME280;47923;42.506;24.192;2023-03-22T04:18:36;95114.78;;;8.03;98.73
61961;BME280;47923;42.506;24.192;2023-03-22T04:21:02;95144.09;;;8.24;98.57
61961;BME280;47923;42.506;24.192;2023-03-22T04:23:28;95110.94;;;8.04;98.55
61961;BME280;47923;42.506;24.192;2023-03-22T04:25:53;94947.50;;;6.96;98.77
61961;BME280;47923;42.506;24.192;2023-03-22T04:28:19;95142.38;;;8.16;98.67
61961;BME280;47923;42.506;24.192;2023-03-22T04:30:46;95154.84;;;8.24;98.92
61961;BME280;47923;42.506;24.192;2023-03-22T04:33:15;95155.97;;;8.23;99.18
61961;BME280;47923;42.506;24.192;2023-03-22T04:35:40;95101.78;;;7.90;99.37
61961;BME280;47923;42.506;24.192;2023-03-22T04:38:06;95129.06;;;8.08;98.95
61961;BME280;47923;42.506;24.192;2023-03-22T04:40:32;95085.06;;;7.65;98.65
61961;BME280;47923;42.506;24.192;2023-03-22T04:43:00;95165.88;;;8.19;99.09
61961;BME280;47923;42.506;24.192;2023-03-22T04:45:30;95172.38;;;8.18;99.05
61961;BME280;47923;42.506;24.192;2023-03-22T04:47:58;95172.22;;;8.11;99.80
61961;BME280;47923;42.506;24.192;2023-03-22T04:50:24;95174.38;;;8.06;99.64
61961;BME280;47923;42.506;24.192;2023-03-22T04:52:52;95164.59;;;7.82;100.00
61961;BME280;47923;42.506;24.192;2023-03-22T04:55:17;95028.53;;;6.98;100.00
61961;BME280;47923;42.506;24.192;2023-03-22T04:57:43;95186.72;;;7.91;100.00
61961;BME280;47923;42.506;24.192;2023-03-22T05:00:09;95131.97;;;7.52;100.00
61961;BME280;47923;42.506;24.192;2023-03-22T05:02:35;95020.94;;;6.72;100.00
61961;BME280;47923;42.506;24.192;2023-03-22T05:05:03;95116.84;;;7.31;100.00
61961;BME280;47923;42.506;24.192;2023-03-22T05:07:29;95045.28;;;6.79;100.00
61961;BME280;47923;42.506;24.192;2023-03-22T05:09:55;95085.59;;;6.95;100.00
61961;BME280;47923;42.506;24.192;2023-03-22T05:12:20;95205.78;;;7.70;100.00
61961;BME280;47923;42.506;24.192;2023-03-22T05:14:45;95174.44;;;7.46;100.00
61961;BME280;47923;42.506;24.192;2023-03-22T05:17:11;95207.59;;;7.66;100.00
61961;BME280;47923;42.506;24.192;2023-03-22T05:19:36;95205.16;;;7.61;100.00
61961;BME280;47923;42.506;24.192;2023-03-22T05:22:02;95146.16;;;7.20;100.00
61961;BME280;47923;42.506;24.192;2023-03-22T05:24:28;95173.28;;;7.31;100.00
61961;BME280;47923;42.506;24.192;2023-03-22T05:26:54;95237.34;;;7.57;100.00
61961;BME280;47923;42.506;24.192;2023-03-22T05:29:20;95200.28;;;7.35;100.00
61961;BME280;47923;42.506;24.192;2023-03-22T05:31:46;94988.81;;;6.04;100.00
61961;BME280;47923;42.506;24.192;2023-03-22T05:34:11;95134.84;;;6.99;100.00
61961;BME280;47923;42.506;24.192;2023-03-22T05:36:38;95228.03;;;7.55;100.00
61961;BME280;47923;42.506;24.192;2023-03-22T05:39:03;95230.31;;;7.53;100.00
61961;BME280;47923;42.506;24.192;2023-03-22T05:41:29;95212.47;;;7.32;100.00
61961;BME280;47923;42.506;24.192;2023-03-22T05:43:56;95022.31;;;6.10;100.00
61961;BME280;47923;42.506;24.192;2023-03-22T05:46:21;95183.22;;;7.15;100.00
61961;BME280;47923;42.506;24.192;2023-03-22T05:48:47;95235.56;;;7.49;100.00
61961;BME280;47923;42.506;24.192;2023-03-22T05:51:15;95134.78;;;6.83;100.00
61961;BME280;47923;42.506;24.192;2023-03-22T05:53:45;95237.47;;;7.48;100.00
61961;BME280;47923;42.506;24.192;2023-03-22T05:56:11;95051.19;;;6.29;100.00
61961;BME280;47923;42.506;24.192;2023-03-22T05:58:36;95248.22;;;7.48;100.00
61961;BME280;47923;42.506;24.192;2023-03-22T06:01:07;95245.47;;;7.45;100.00
61961;BME280;47923;42.506;24.192;2023-03-22T06:03:32;95258.13;;;7.44;100.00
61961;BME280;47923;42.506;24.192;2023-03-22T06:05:58;95260.25;;;7.39;100.00
61961;BME280;47923;42.506;24.192;2023-03-22T06:08:24;95249.13;;;7.25;100.00
61961;BME280;47923;42.506;24.192;2023-03-22T06:10:50;95226.28;;;7.18;100.00
61961;BME280;47923;42.506;24.192;2023-03-22T06:13:17;95274.31;;;7.48;100.00
61961;BME280;47923;42.506;24.192;2023-03-22T06:15:43;95223.28;;;7.20;100.00
61961;BME280;47923;42.506;24.192;2023-03-22T06:18:09;95275.75;;;7.58;100.00
61961;BME280;47923;42.506;24.192;2023-03-22T06:20:34;95281.47;;;7.56;100.00
61961;BME280;47923;42.506;24.192;2023-03-22T06:23:00;95277.66;;;7.57;100.00
61961;BME280;47923;42.506;24.192;2023-03-22T06:25:25;95278.53;;;7.61;100.00
61961;BME280;47923;42.506;24.192;2023-03-22T06:27:51;95213.84;;;7.26;100.00
61961;BME280;47923;42.506;24.192;2023-03-22T06:30:16;95296.06;;;7.71;100.00
61961;BME280;47923;42.506;24.192;2023-03-22T06:32:43;95226.34;;;7.34;100.00
61961;BME280;47923;42.506;24.192;2023-03-22T06:35:08;95137.59;;;6.75;100.00
61961;BME280;47923;42.506;24.192;2023-03-22T06:37:34;95176.91;;;6.95;100.00
61961;BME280;47923;42.506;24.192;2023-03-22T06:39:59;95301.06;;;7.85;100.00
61961;BME280;47923;42.506;24.192;2023-03-22T06:42:25;95185.47;;;7.13;100.00
61961;BME280;47923;42.506;24.192;2023-03-22T06:44:50;95216.41;;;7.35;100.00
61961;BME280;47923;42.506;24.192;2023-03-22T06:47:16;95301.69;;;7.94;100.00
61961;BME280;47923;42.506;24.192;2023-03-22T06:49:41;95304.91;;;7.99;100.00
61961;BME280;47923;42.506;24.192;2023-03-22T06:52:07;95315.78;;;8.03;100.00
61961;BME280;47923;42.506;24.192;2023-03-22T06:54:33;95262.72;;;7.72;100.00
61961;BME280;47923;42.506;24.192;2023-03-22T06:56:58;95310.47;;;8.07;100.00
61961;BME280;47923;42.506;24.192;2023-03-22T06:59:24;95335.81;;;8.06;100.00
61961;BME280;47923;42.506;24.192;2023-03-22T07:01:49;94793.94;;;4.59;100.00
61961;BME280;47923;42.506;24.192;2023-03-22T07:04:15;95322.97;;;8.15;100.00
61961;BME280;47923;42.506;24.192;2023-03-22T07:06:40;95327.34;;;8.19;100.00
61961;BME280;47923;42.506;24.192;2023-03-22T07:09:06;95307.88;;;8.10;100.00
61961;BME280;47923;42.506;24.192;2023-03-22T07:11:31;95320.78;;;8.48;100.00
61961;BME280;47923;42.506;24.192;2023-03-22T07:13:57;95302.97;;;8.44;100.00
61961;BME280;47923;42.506;24.192;2023-03-22T07:16:22;95249.13;;;8.28;100.00
61961;BME280;47923;42.506;24.192;2023-03-22T07:18:48;95249.31;;;8.35;100.00
61961;BME280;47923;42.506;24.192;2023-03-22T07:21:14;95281.44;;;8.60;100.00
61961;BME280;47923;42.506;24.192;2023-03-22T07:23:39;95340.41;;;8.96;100.00
61961;BME280;47923;42.506;24.192;2023-03-22T07:26:05;95277.16;;;8.58;100.00
61961;BME280;47923;42.506;24.192;2023-03-22T07:28:31;95342.13;;;9.04;100.00
61961;BME280;47923;42.506;24.192;2023-03-22T07:31:01;95337.66;;;9.12;100.00
61961;BME280;47923;42.506;24.192;2023-03-22T07:33:27;95313.47;;;8.96;100.00
61961;BME280;47923;42.506;24.192;2023-03-22T07:35:52;95272.88;;;8.73;100.00
61961;BME280;47923;42.506;24.192;2023-03-22T07:38:17;95329.13;;;9.10;100.00
61961;BME280;47923;42.506;24.192;2023-03-22T07:40:43;95362.31;;;9.30;100.00
61961;BME280;47923;42.506;24.192;2023-03-22T07:43:08;95338.00;;;9.26;100.00
61961;BME280;47923;42.506;24.192;2023-03-22T07:45:36;95330.47;;;9.35;100.00
61961;BME280;47923;42.506;24.192;2023-03-22T07:48:01;95328.91;;;9.34;99.58
61961;BME280;47923;42.506;24.192;2023-03-22T07:50:27;95344.22;;;9.30;99.47
61961;BME280;47923;42.506;24.192;2023-03-22T07:52:52;95113.31;;;7.90;98.60
61961;BME280;47923;42.506;24.192;2023-03-22T07:55:18;95113.56;;;8.01;99.28
61961;BME280;47923;42.506;24.192;2023-03-22T07:57:43;95222.38;;;8.86;99.13
61961;BME280;47923;42.506;24.192;2023-03-22T08:00:09;95271.84;;;9.32;99.04
61961;BME280;47923;42.506;24.192;2023-03-22T08:02:36;95148.84;;;8.66;97.35
61961;BME280;47923;42.506;24.192;2023-03-22T08:05:03;95332.19;;;9.82;95.00
61961;BME280;47923;42.506;24.192;2023-03-22T08:07:29;95256.75;;;9.47;94.80
61961;BME280;47923;42.506;24.192;2023-03-22T08:09:55;95264.69;;;9.59;92.88
61961;BME280;47923;42.506;24.192;2023-03-22T08:12:21;95332.81;;;10.14;92.49
61961;BME280;47923;42.506;24.192;2023-03-22T08:14:47;95321.34;;;10.40;91.76
61961;BME280;47923;42.506;24.192;2023-03-22T08:17:16;95275.25;;;10.30;89.81
61961;BME280;47923;42.506;24.192;2023-03-22T08:19:41;95332.38;;;10.77;87.70
61961;BME280;47923;42.506;24.192;2023-03-22T08:22:07;95018.38;;;8.83;86.65
61961;BME280;47923;42.506;24.192;2023-03-22T08:24:33;95233.00;;;10.41;85.57
61961;BME280;47923;42.506;24.192;2023-03-22T08:26:58;95334.47;;;11.14;83.21
61961;BME280;47923;42.506;24.192;2023-03-22T08:29:24;95333.75;;;11.17;82.00
61961;BME280;47923;42.506;24.192;2023-03-22T08:31:50;95335.84;;;11.31;81.52
61961;BME280;47923;42.506;24.192;2023-03-22T08:34:16;95330.50;;;11.34;80.09
61961;BME280;47923;42.506;24.192;2023-03-22T08:36:41;95334.56;;;11.48;79.48
61961;BME280;47923;42.506;24.192;2023-03-22T08:39:07;95312.94;;;11.51;78.20
61961;BME280;47923;42.506;24.192;2023-03-22T08:41:33;95336.25;;;11.89;76.05
61961;BME280;47923;42.506;24.192;2023-03-22T08:43:59;95247.41;;;11.31;72.38
61961;BME280;47923;42.506;24.192;2023-03-22T08:46:25;95293.59;;;12.13;72.31
61961;BME280;47923;42.506;24.192;2023-03-22T08:48:51;95334.94;;;12.91;72.00
61961;BME280;47923;42.506;24.192;2023-03-22T08:51:18;95252.31;;;12.75;67.91
61961;BME280;47923;42.506;24.192;2023-03-22T08:53:45;95337.56;;;14.12;67.91
61961;BME280;47923;42.506;24.192;2023-03-22T08:56:11;95345.13;;;14.86;65.39
61961;BME280;47923;42.506;24.192;2023-03-22T08:58:39;95293.44;;;14.76;60.62
61961;BME280;47923;42.506;24.192;2023-03-22T09:01:10;95344.69;;;15.27;62.86
61961;BME280;47923;42.506;24.192;2023-03-22T09:03:35;95184.69;;;14.51;62.21
61961;BME280;47923;42.506;24.192;2023-03-22T09:06:01;95322.13;;;15.34;58.21
61961;BME280;47923;42.506;24.192;2023-03-22T09:08:26;95352.06;;;15.41;55.83
61961;BME280;47923;42.506;24.192;2023-03-22T09:10:53;95295.78;;;14.70;56.70
61961;BME280;47923;42.506;24.192;2023-03-22T09:13:20;95356.34;;;14.63;58.18
61961;BME280;47923;42.506;24.192;2023-03-22T09:15:46;95342.75;;;14.49;60.19
61961;BME280;47923;42.506;24.192;2023-03-22T09:18:12;95343.13;;;14.48;61.77
61961;BME280;47923;42.506;24.192;2023-03-22T09:20:38;95340.72;;;14.28;59.57
61961;BME280;47923;42.506;24.192;2023-03-22T09:23:04;95122.94;;;12.64;60.79
61961;BME280;47923;42.506;24.192;2023-03-22T09:25:29;95352.63;;;13.95;61.71
61961;BME280;47923;42.506;24.192;2023-03-22T09:27:55;95349.47;;;13.79;60.06
61961;BME280;47923;42.506;24.192;2023-03-22T09:30:21;95352.53;;;13.67;60.56
61961;BME280;47923;42.506;24.192;2023-03-22T09:32:47;95346.31;;;13.70;62.44
61961;BME280;47923;42.506;24.192;2023-03-22T09:35:13;95301.91;;;13.30;62.78
61961;BME280;47923;42.506;24.192;2023-03-22T09:37:38;95314.34;;;13.35;59.20
61961;BME280;47923;42.506;24.192;2023-03-22T09:40:05;95277.84;;;13.28;59.20
61961;BME280;47923;42.506;24.192;2023-03-22T09:42:35;95270.56;;;13.43;60.44
61961;BME280;47923;42.506;24.192;2023-03-22T09:45:05;95302.16;;;13.87;57.27
61961;BME280;47923;42.506;24.192;2023-03-22T09:47:37;95338.88;;;14.57;59.89
61961;BME280;47923;42.506;24.192;2023-03-22T09:50:18;95291.81;;;14.28;54.94
61961;BME280;47923;42.506;24.192;2023-03-22T09:52:44;95281.31;;;14.20;56.74
61961;BME280;47923;42.506;24.192;2023-03-22T09:55:21;95133.22;;;13.10;56.66
61961;BME280;47923;42.506;24.192;2023-03-22T10:00:56;95354.31;;;14.25;55.87
61961;BME280;47923;42.506;24.192;2023-03-22T10:06:17;95355.44;;;14.24;56.97
61961;BME280;47923;42.506;24.192;2023-03-22T10:12:28;95331.59;;;13.71;56.99
61961;BME280;47923;42.506;24.192;2023-03-22T10:15:10;95292.19;;;13.29;56.61
61961;BME280;47923;42.506;24.192;2023-03-22T10:17:38;95359.50;;;13.68;56.94
61961;BME280;47923;42.506;24.192;2023-03-22T10:22:56;94577.06;;;8.25;59.49
61961;BME280;47923;42.506;24.192;2023-03-22T10:25:32;95366.75;;;13.49;56.67
61961;BME280;47923;42.506;24.192;2023-03-22T10:28:00;95375.13;;;13.26;56.25
61961;BME280;47923;42.506;24.192;2023-03-22T10:30:29;95361.22;;;13.32;55.38
61961;BME280;47923;42.506;24.192;2023-03-22T10:33:04;95362.09;;;13.50;58.71
61961;BME280;47923;42.506;24.192;2023-03-22T10:35:37;95318.16;;;13.23;57.58
61961;BME280;47923;42.506;24.192;2023-03-22T10:38:04;95339.91;;;13.34;58.76
61961;BME280;47923;42.506;24.192;2023-03-22T10:40:33;95324.31;;;13.20;57.33
61961;BME280;47923;42.506;24.192;2023-03-22T10:43:20;95355.97;;;13.64;57.35
61961;BME280;47923;42.506;24.192;2023-03-22T10:45:47;95328.03;;;13.56;59.85
61961;BME280;47923;42.506;24.192;2023-03-22T10:48:28;95325.69;;;13.54;56.59
61961;BME280;47923;42.506;24.192;2023-03-22T10:50:57;95280.84;;;13.09;57.14
61961;BME280;47923;42.506;24.192;2023-03-22T10:55:55;95226.88;;;12.35;54.15
61961;BME280;47923;42.506;24.192;2023-03-22T10:58:26;95275.50;;;12.68;58.40
61961;BME280;47923;42.506;24.192;2023-03-22T11:00:56;95093.59;;;11.67;57.22
61961;BME280;47923;42.506;24.192;2023-03-22T11:08:41;95341.31;;;13.17;59.23
61961;BME280;47923;42.506;24.192;2023-03-22T11:14:06;95328.31;;;13.37;56.98
61961;BME280;47923;42.506;24.192;2023-03-22T11:16:52;95269.94;;;13.02;56.59
61961;BME280;47923;42.506;24.192;2023-03-22T11:19:24;95329.00;;;14.03;57.33
61961;BME280;47923;42.506;24.192;2023-03-22T11:21:56;95213.81;;;13.10;55.11
61961;BME280;47923;42.506;24.192;2023-03-22T11:24:27;95332.09;;;13.98;56.80
61961;BME280;47923;42.506;24.192;2023-03-22T11:27:06;95262.59;;;13.86;51.08
61961;BME280;47923;42.506;24.192;2023-03-22T11:29:51;95333.22;;;13.90;52.68
61961;BME280;47923;42.506;24.192;2023-03-22T11:32:37;95336.28;;;13.74;55.39
61961;BME280;47923;42.506;24.192;2023-03-22T11:37:45;95320.53;;;13.32;54.45
61961;BME280;47923;42.506;24.192;2023-03-22T11:40:24;95328.44;;;13.07;54.27
61961;BME280;47923;42.506;24.192;2023-03-22T11:45:34;95325.25;;;12.09;53.69
61961;BME280;47923;42.506;24.192;2023-03-22T11:48:07;95325.84;;;11.92;56.90
61961;BME280;47923;42.506;24.192;2023-03-22T11:50:36;95251.16;;;11.53;58.75
61961;BME280;47923;42.506;24.192;2023-03-22T11:53:03;95286.97;;;12.07;58.08
61961;BME280;47923;42.506;24.192;2023-03-22T11:55:33;95286.88;;;12.40;57.64
61961;BME280;47923;42.506;24.192;2023-03-22T11:58:04;95321.44;;;12.51;53.57
61961;BME280;47923;42.506;24.192;2023-03-22T12:00:35;95129.47;;;11.23;54.05
61961;BME280;47923;42.506;24.192;2023-03-22T12:03:05;95323.31;;;12.43;53.23
61961;BME280;47923;42.506;24.192;2023-03-22T12:05:40;95325.63;;;12.44;55.24
61961;BME280;47923;42.506;24.192;2023-03-22T12:10:57;95319.31;;;13.25;55.87
61961;BME280;47923;42.506;24.192;2023-03-22T12:13:37;95309.75;;;13.49;53.11
61961;BME280;47923;42.506;24.192;2023-03-22T12:16:05;95274.16;;;13.62;52.98
61961;BME280;47923;42.506;24.192;2023-03-22T12:18:38;95308.00;;;13.93;53.14
61961;BME280;47923;42.506;24.192;2023-03-22T12:21:08;95281.66;;;14.07;52.99
61961;BME280;47923;42.506;24.192;2023-03-22T12:23:34;95191.16;;;13.57;49.05
61961;BME280;47923;42.506;24.192;2023-03-22T12:31:06;95293.44;;;14.58;47.89
61961;BME280;47923;42.506;24.192;2023-03-22T12:33:42;95215.72;;;14.10;50.29
61961;BME280;47923;42.506;24.192;2023-03-22T12:36:16;95171.09;;;14.12;49.25
61961;BME280;47923;42.506;24.192;2023-03-22T12:38:51;95293.06;;;14.91;50.27
61961;BME280;47923;42.506;24.192;2023-03-22T12:41:25;95293.81;;;14.74;49.35
61961;BME280;47923;42.506;24.192;2023-03-22T12:43:55;95297.31;;;14.85;49.90
61961;BME280;47923;42.506;24.192;2023-03-22T12:46:26;95293.03;;;14.95;50.75
61961;BME280;47923;42.506;24.192;2023-03-22T12:49:00;95301.97;;;15.10;49.92
61961;BME280;47923;42.506;24.192;2023-03-22T12:51:26;95302.75;;;15.14;49.55
61961;BME280;47923;42.506;24.192;2023-03-22T12:53:55;95291.81;;;15.39;49.83
61961;BME280;47923;42.506;24.192;2023-03-22T12:56:29;95295.25;;;15.54;49.40
61961;BME280;47923;42.506;24.192;2023-03-22T12:59:01;95290.63;;;15.43;47.56
61961;BME280;47923;42.506;24.192;2023-03-22T13:02:37;95291.38;;;15.47;48.78
61961;BME280;47923;42.506;24.192;2023-03-22T13:07:14;95294.09;;;15.55;49.04
61961;BME280;47923;42.506;24.192;2023-03-22T13:09:46;95231.25;;;14.96;49.57
61961;BME280;47923;42.506;24.192;2023-03-22T13:17:39;95286.06;;;14.58;52.31
61961;BME280;47923;42.506;24.192;2023-03-22T13:25:26;95251.38;;;13.91;52.45
61961;BME280;47923;42.506;24.192;2023-03-22T13:27:54;95294.78;;;13.88;51.64
61961;BME280;47923;42.506;24.192;2023-03-22T13:35:40;95295.56;;;13.12;53.64
61961;BME280;47923;42.506;24.192;2023-03-22T13:38:09;95220.03;;;12.52;52.76
61961;BME280;47923;42.506;24.192;2023-03-22T13:43:26;95289.72;;;13.06;53.62
61961;BME280;47923;42.506;24.192;2023-03-22T13:51:26;95293.56;;;13.67;51.54
61961;BME280;47923;42.506;24.192;2023-03-22T14:01:44;95072.22;;;12.65;51.07
61961;BME280;47923;42.506;24.192;2023-03-22T14:04:16;95133.97;;;13.07;51.37
61961;BME280;47923;42.506;24.192;2023-03-22T14:09:42;95256.78;;;13.84;51.48
61961;BME280;47923;42.506;24.192;2023-03-22T14:12:30;95250.75;;;13.36;52.51
61961;BME280;47923;42.506;24.192;2023-03-22T14:15:00;95288.72;;;13.25;53.99
61961;BME280;47923;42.506;24.192;2023-03-22T14:17:33;95290.53;;;13.10;54.75
61961;BME280;47923;42.506;24.192;2023-03-22T14:20:00;95294.75;;;13.04;55.61
61961;BME280;47923;42.506;24.192;2023-03-22T14:22:33;95293.53;;;12.98;56.50
61961;BME280;47923;42.506;24.192;2023-03-22T14:25:04;95291.19;;;12.96;56.87
61961;BME280;47923;42.506;24.192;2023-03-22T14:27:32;95164.78;;;12.12;57.95
61961;BME280;47923;42.506;24.192;2023-03-22T14:29:58;95291.13;;;12.86;58.79
61961;BME280;47923;42.506;24.192;2023-03-22T14:32:26;95293.06;;;12.85;59.18
61961;BME280;47923;42.506;24.192;2023-03-22T14:35:18;95292.97;;;12.71;58.74
61961;BME280;47923;42.506;24.192;2023-03-22T14:37:46;95279.94;;;12.43;59.82
61961;BME280;47923;42.506;24.192;2023-03-22T14:40:15;95258.94;;;12.29;59.83
61961;BME280;47923;42.506;24.192;2023-03-22T14:42:43;95299.78;;;12.54;59.69
61961;BME280;47923;42.506;24.192;2023-03-22T14:45:18;95302.66;;;12.31;60.21
61961;BME280;47923;42.506;24.192;2023-03-22T14:47:45;95198.41;;;11.37;61.78
61961;BME280;47923;42.506;24.192;2023-03-22T14:50:19;95296.81;;;11.88;62.49
61961;BME280;47923;42.506;24.192;2023-03-22T14:52:46;95302.66;;;11.91;63.17
61961;BME280;47923;42.506;24.192;2023-03-22T14:55:21;95296.72;;;12.15;62.75